sensor_id;sensor_type;location;lat;lon;timestamp;P1;durP1;ratioP1;P2;durP2;ratioP2
77591;SDS011;66891;46.884;17.436;2023-09-07T00:02:08;7.23;;;2.50;;
77591;SDS011;66891;46.884;17.436;2023-09-07T00:04:37;6.70;;;2.33;;
77591;SDS011;66891;46.884;17.436;2023-09-07T00:07:06;6.63;;;2.60;;
77591;SDS011;66891;46.884;17.436;2023-09-07T00:09:33;8.32;;;2.58;;
77591;SDS011;66891;46.884;17.436;2023-09-07T00:12:00;7.07;;;2.17;;
77591;SDS011;66891;46.884;17.436;2023-09-07T00:14:27;7.60;;;2.63;;
77591;SDS011;66891;46.884;17.436;2023-09-07T00:16:54;8.27;;;2.72;;
77591;SDS011;66891;46.884;17.436;2023-09-07T00:19:21;7.57;;;2.20;;
77591;SDS011;66891;46.884;17.436;2023-09-07T00:21:48;7.68;;;2.50;;
77591;SDS011;66891;46.884;17.436;2023-09-07T00:24:20;9.50;;;2.63;;
77591;SDS011;66891;46.884;17.436;2023-09-07T00:26:49;8.43;;;2.60;;
77591;SDS011;66891;46.884;17.436;2023-09-07T00:29:16;7.65;;;2.30;;
77591;SDS011;66891;46.884;17.436;2023-09-07T00:31:43;7.03;;;2.40;;
77591;SDS011;66891;46.884;17.436;2023-09-07T00:34:10;7.65;;;2.40;;
77591;SDS011;66891;46.884;17.436;2023-09-07T00:36:37;8.15;;;2.70;;
77591;SDS011;66891;46.884;17.436;2023-09-07T00:39:04;6.87;;;2.53;;
77591;SDS011;66891;46.884;17.436;2023-09-07T00:41:33;7.75;;;2.60;;
77591;SDS011;66891;46.884;17.436;2023-09-07T00:44:00;7.25;;;2.67;;
77591;SDS011;66891;46.884;17.436;2023-09-07T00:46:27;8.27;;;2.65;;
77591;SDS011;66891;46.884;17.436;2023-09-07T00:48:54;6.60;;;2.30;;
77591;SDS011;66891;46.884;17.436;2023-09-07T00:51:21;6.97;;;2.53;;
77591;SDS011;66891;46.884;17.436;2023-09-07T00:53:48;7.47;;;2.47;;
77591;SDS011;66891;46.884;17.436;2023-09-07T00:56:15;7.50;;;2.70;;
77591;SDS011;66891;46.884;17.436;2023-09-07T00:58:44;7.13;;;2.50;;
77591;SDS011;66891;46.884;17.436;2023-09-07T01:01:11;8.50;;;2.45;;
77591;SDS011;66891;46.884;17.436;2023-09-07T01:03:38;8.00;;;2.77;;
77591;SDS011;66891;46.884;17.436;2023-09-07T01:06:07;7.28;;;2.65;;
77591;SDS011;66891;46.884;17.436;2023-09-07T01:08:39;7.80;;;2.65;;
77591;SDS011;66891;46.884;17.436;2023-09-07T01:11:14;7.40;;;2.47;;
77591;SDS011;66891;46.884;17.436;2023-09-07T01:13:41;6.47;;;2.25;;
77591;SDS011;66891;46.884;17.436;2023-09-07T01:16:13;7.20;;;2.30;;
77591;SDS011;66891;46.884;17.436;2023-09-07T01:18:40;8.30;;;3.03;;
77591;SDS011;66891;46.884;17.436;2023-09-07T01:21:08;6.72;;;2.38;;
77591;SDS011;66891;46.884;17.436;2023-09-07T01:23:40;7.65;;;2.60;;
77591;SDS011;66891;46.884;17.436;2023-09-07T01:26:07;7.72;;;2.47;;
77591;SDS011;66891;46.884;17.436;2023-09-07T01:28:35;10.43;;;2.70;;
77591;SDS011;66891;46.884;17.436;2023-09-07T01:31:05;8.38;;;2.05;;
77591;SDS011;66891;46.884;17.436;2023-09-07T01:33:33;8.85;;;3.03;;
77591;SDS011;66891;46.884;17.436;2023-09-07T01:36:00;7.20;;;1.95;;
77591;SDS011;66891;46.884;17.436;2023-09-07T01:38:28;7.43;;;2.15;;
77591;SDS011;66891;46.884;17.436;2023-09-07T01:40:56;6.57;;;2.37;;
77591;SDS011;66891;46.884;17.436;2023-09-07T01:43:23;7.03;;;2.35;;
77591;SDS011;66891;46.884;17.436;2023-09-07T01:45:51;8.48;;;2.58;;
77591;SDS011;66891;46.884;17.436;2023-09-07T01:48:18;7.03;;;2.38;;
77591;SDS011;66891;46.884;17.436;2023-09-07T01:50:45;8.38;;;2.53;;
77591;SDS011;66891;46.884;17.436;2023-09-07T01:53:12;9.80;;;2.80;;
77591;SDS011;66891;46.884;17.436;2023-09-07T01:55:39;8.15;;;2.60;;
77591;SDS011;66891;46.884;17.436;2023-09-07T01:58:07;7.07;;;2.70;;
77591;SDS011;66891;46.884;17.436;2023-09-07T02:00:36;8.73;;;2.40;;
77591;SDS011;66891;46.884;17.436;2023-09-07T02:03:03;8.65;;;2.88;;
77591;SDS011;66891;46.884;17.436;2023-09-07T02:05:30;9.30;;;2.90;;
77591;SDS011;66891;46.884;17.436;2023-09-07T02:07:59;8.40;;;2.25;;
77591;SDS011;66891;46.884;17.436;2023-09-07T02:10:26;8.55;;;2.28;;
77591;SDS011;66891;46.884;17.436;2023-09-07T02:12:53;7.53;;;2.20;;
77591;SDS011;66891;46.884;17.436;2023-09-07T02:15:21;7.43;;;2.60;;
77591;SDS011;66891;46.884;17.436;2023-09-07T02:17:48;8.60;;;2.33;;
77591;SDS011;66891;46.884;17.436;2023-09-07T02:20:16;8.45;;;2.38;;
77591;SDS011;66891;46.884;17.436;2023-09-07T02:22:45;7.68;;;2.15;;
77591;SDS011;66891;46.884;17.436;2023-09-07T02:25:12;8.32;;;2.75;;
77591;SDS011;66891;46.884;17.436;2023-09-07T02:27:39;10.07;;;2.80;;
77591;SDS011;66891;46.884;17.436;2023-09-07T02:30:07;7.93;;;2.37;;
77591;SDS011;66891;46.884;17.436;2023-09-07T02:32:35;8.48;;;2.95;;
77591;SDS011;66891;46.884;17.436;2023-09-07T02:35:03;7.55;;;2.60;;
77591;SDS011;66891;46.884;17.436;2023-09-07T02:37:31;7.88;;;2.60;;
77591;SDS011;66891;46.884;17.436;2023-09-07T02:39:58;7.88;;;2.75;;
77591;SDS011;66891;46.884;17.436;2023-09-07T02:42:25;8.07;;;2.50;;
77591;SDS011;66891;46.884;17.436;2023-09-07T02:44:52;6.78;;;2.05;;
77591;SDS011;66891;46.884;17.436;2023-09-07T02:47:20;7.28;;;2.50;;
77591;SDS011;66891;46.884;17.436;2023-09-07T02:49:49;7.32;;;2.42;;
77591;SDS011;66891;46.884;17.436;2023-09-07T02:52:16;8.20;;;2.55;;
77591;SDS011;66891;46.884;17.436;2023-09-07T02:54:43;7.37;;;2.50;;
77591;SDS011;66891;46.884;17.436;2023-09-07T02:57:10;7.53;;;2.70;;
77591;SDS011;66891;46.884;17.436;2023-09-07T02:59:39;7.40;;;2.50;;
77591;SDS011;66891;46.884;17.436;2023-09-07T03:02:06;7.95;;;2.90;;
77591;SDS011;66891;46.884;17.436;2023-09-07T03:04:34;8.32;;;2.75;;
77591;SDS011;66891;46.884;17.436;2023-09-07T03:07:02;8.43;;;2.80;;
77591;SDS011;66891;46.884;17.436;2023-09-07T03:09:29;8.13;;;2.78;;
77591;SDS011;66891;46.884;17.436;2023-09-07T03:11:56;6.80;;;2.53;;
77591;SDS011;66891;46.884;17.436;2023-09-07T03:14:23;8.88;;;2.95;;
77591;SDS011;66891;46.884;17.436;2023-09-07T03:16:51;8.10;;;3.10;;
77591;SDS011;66891;46.884;17.436;2023-09-07T03:19:18;6.67;;;2.13;;
77591;SDS011;66891;46.884;17.436;2023-09-07T03:21:46;8.23;;;2.78;;
77591;SDS011;66891;46.884;17.436;2023-09-07T03:24:14;9.02;;;2.95;;
77591;SDS011;66891;46.884;17.436;2023-09-07T03:26:42;7.13;;;2.30;;
77591;SDS011;66891;46.884;17.436;2023-09-07T03:29:10;8.43;;;2.92;;
77591;SDS011;66891;46.884;17.436;2023-09-07T03:31:37;8.50;;;2.80;;
77591;SDS011;66891;46.884;17.436;2023-09-07T03:34:04;9.10;;;2.72;;
77591;SDS011;66891;46.884;17.436;2023-09-07T03:36:32;8.43;;;2.85;;
77591;SDS011;66891;46.884;17.436;2023-09-07T03:38:59;8.70;;;2.88;;
77591;SDS011;66891;46.884;17.436;2023-09-07T03:41:28;7.35;;;2.55;;
77591;SDS011;66891;46.884;17.436;2023-09-07T03:43:57;7.87;;;2.77;;
77591;SDS011;66891;46.884;17.436;2023-09-07T03:46:25;8.77;;;3.33;;
77591;SDS011;66891;46.884;17.436;2023-09-07T03:48:53;9.32;;;2.80;;
77591;SDS011;66891;46.884;17.436;2023-09-07T03:51:20;7.93;;;2.75;;
77591;SDS011;66891;46.884;17.436;2023-09-07T03:53:47;8.27;;;3.00;;
77591;SDS011;66891;46.884;17.436;2023-09-07T03:56:14;8.33;;;3.00;;
77591;SDS011;66891;46.884;17.436;2023-09-07T03:58:42;8.25;;;3.40;;
77591;SDS011;66891;46.884;17.436;2023-09-07T04:01:09;9.00;;;3.03;;
77591;SDS011;66891;46.884;17.436;2023-09-07T04:03:38;8.95;;;3.20;;
77591;SDS011;66891;46.884;17.436;2023-09-07T04:06:07;8.57;;;2.92;;
77591;SDS011;66891;46.884;17.436;2023-09-07T04:08:34;9.03;;;2.97;;
77591;SDS011;66891;46.884;17.436;2023-09-07T04:11:03;8.15;;;2.92;;
77591;SDS011;66891;46.884;17.436;2023-09-07T04:13:30;8.30;;;3.08;;
77591;SDS011;66891;46.884;17.436;2023-09-07T04:15:58;9.35;;;3.75;;
77591;SDS011;66891;46.884;17.436;2023-09-07T04:18:25;9.90;;;3.72;;
77591;SDS011;66891;46.884;17.436;2023-09-07T04:20:53;8.50;;;3.00;;
77591;SDS011;66891;46.884;17.436;2023-09-07T04:23:20;9.60;;;3.42;;
77591;SDS011;66891;46.884;17.436;2023-09-07T04:25:47;9.15;;;3.05;;
77591;SDS011;66891;46.884;17.436;2023-09-07T04:28:14;10.85;;;3.28;;
77591;SDS011;66891;46.884;17.436;2023-09-07T04:30:41;9.75;;;3.28;;
77591;SDS011;66891;46.884;17.436;2023-09-07T04:33:10;16.03;;;3.70;;
77591;SDS011;66891;46.884;17.436;2023-09-07T04:35:38;8.48;;;3.65;;
77591;SDS011;66891;46.884;17.436;2023-09-07T04:38:05;9.80;;;3.70;;
77591;SDS011;66891;46.884;17.436;2023-09-07T04:40:32;10.93;;;3.90;;
77591;SDS011;66891;46.884;17.436;2023-09-07T04:42:59;8.18;;;3.45;;
77591;SDS011;66891;46.884;17.436;2023-09-07T04:45:26;10.67;;;4.00;;
77591;SDS011;66891;46.884;17.436;2023-09-07T04:47:53;8.90;;;3.47;;
77591;SDS011;66891;46.884;17.436;2023-09-07T04:50:22;10.85;;;3.78;;
77591;SDS011;66891;46.884;17.436;2023-09-07T04:52:49;8.23;;;3.00;;
77591;SDS011;66891;46.884;17.436;2023-09-07T04:55:16;12.52;;;4.43;;
77591;SDS011;66891;46.884;17.436;2023-09-07T04:57:43;10.07;;;3.70;;
77591;SDS011;66891;46.884;17.436;2023-09-07T05:00:10;9.73;;;3.25;;
77591;SDS011;66891;46.884;17.436;2023-09-07T05:02:38;12.38;;;3.78;;
77591;SDS011;66891;46.884;17.436;2023-09-07T05:05:08;9.75;;;3.72;;
77591;SDS011;66891;46.884;17.436;2023-09-07T05:07:37;8.80;;;3.40;;
77591;SDS011;66891;46.884;17.436;2023-09-07T05:10:05;10.57;;;3.63;;
77591;SDS011;66891;46.884;17.436;2023-09-07T05:12:33;9.88;;;3.67;;
77591;SDS011;66891;46.884;17.436;2023-09-07T05:15:01;11.18;;;4.20;;
77591;SDS011;66891;46.884;17.436;2023-09-07T05:17:28;10.35;;;3.90;;
77591;SDS011;66891;46.884;17.436;2023-09-07T05:19:55;10.35;;;4.18;;
77591;SDS011;66891;46.884;17.436;2023-09-07T05:22:22;10.70;;;4.30;;
77591;SDS011;66891;46.884;17.436;2023-09-07T05:24:50;11.15;;;5.78;;
77591;SDS011;66891;46.884;17.436;2023-09-07T05:27:17;14.38;;;5.60;;
77591;SDS011;66891;46.884;17.436;2023-09-07T05:29:44;12.20;;;5.07;;
77591;SDS011;66891;46.884;17.436;2023-09-07T05:32:15;13.30;;;5.72;;
77591;SDS011;66891;46.884;17.436;2023-09-07T05:34:44;13.63;;;6.17;;
77591;SDS011;66891;46.884;17.436;2023-09-07T05:37:11;12.43;;;5.25;;
77591;SDS011;66891;46.884;17.436;2023-09-07T05:39:38;16.42;;;5.05;;
77591;SDS011;66891;46.884;17.436;2023-09-07T05:42:06;14.57;;;5.57;;
77591;SDS011;66891;46.884;17.436;2023-09-07T05:44:33;11.55;;;4.90;;
77591;SDS011;66891;46.884;17.436;2023-09-07T05:47:04;12.20;;;4.93;;
77591;SDS011;66891;46.884;17.436;2023-09-07T05:49:31;11.88;;;5.15;;
77591;SDS011;66891;46.884;17.436;2023-09-07T05:51:58;13.27;;;6.10;;
77591;SDS011;66891;46.884;17.436;2023-09-07T05:54:25;14.07;;;5.38;;
77591;SDS011;66891;46.884;17.436;2023-09-07T05:56:53;12.18;;;4.55;;
77591;SDS011;66891;46.884;17.436;2023-09-07T05:59:21;12.13;;;4.10;;
77591;SDS011;66891;46.884;17.436;2023-09-07T06:01:48;9.65;;;3.92;;
77591;SDS011;66891;46.884;17.436;2023-09-07T06:04:15;12.32;;;4.50;;
77591;SDS011;66891;46.884;17.436;2023-09-07T06:06:42;10.23;;;4.13;;
77591;SDS011;66891;46.884;17.436;2023-09-07T06:09:09;10.75;;;3.90;;
77591;SDS011;66891;46.884;17.436;2023-09-07T06:11:36;12.17;;;4.10;;
77591;SDS011;66891;46.884;17.436;2023-09-07T06:14:03;11.45;;;3.80;;
77591;SDS011;66891;46.884;17.436;2023-09-07T06:16:32;11.23;;;4.22;;
77591;SDS011;66891;46.884;17.436;2023-09-07T06:18:59;15.65;;;5.47;;
77591;SDS011;66891;46.884;17.436;2023-09-07T06:21:26;20.52;;;6.90;;
77591;SDS011;66891;46.884;17.436;2023-09-07T06:23:53;13.33;;;5.40;;
77591;SDS011;66891;46.884;17.436;2023-09-07T06:26:20;12.60;;;4.55;;
77591;SDS011;66891;46.884;17.436;2023-09-07T06:28:47;12.30;;;3.97;;
77591;SDS011;66891;46.884;17.436;2023-09-07T06:31:14;9.27;;;3.80;;
77591;SDS011;66891;46.884;17.436;2023-09-07T06:33:46;9.40;;;3.45;;
77591;SDS011;66891;46.884;17.436;2023-09-07T06:36:13;8.03;;;3.37;;
77591;SDS011;66891;46.884;17.436;2023-09-07T06:38:40;9.75;;;3.10;;
77591;SDS011;66891;46.884;17.436;2023-09-07T06:41:08;8.60;;;2.80;;
77591;SDS011;66891;46.884;17.436;2023-09-07T06:43:36;11.60;;;3.10;;
77591;SDS011;66891;46.884;17.436;2023-09-07T06:46:05;9.93;;;3.10;;
77591;SDS011;66891;46.884;17.436;2023-09-07T06:48:35;8.33;;;3.13;;
77591;SDS011;66891;46.884;17.436;2023-09-07T06:51:05;9.60;;;3.30;;
77591;SDS011;66891;46.884;17.436;2023-09-07T06:53:33;8.85;;;3.08;;
77591;SDS011;66891;46.884;17.436;2023-09-07T06:56:20;9.45;;;3.63;;
77591;SDS011;66891;46.884;17.436;2023-09-07T06:58:47;9.07;;;3.90;;
77591;SDS011;66891;46.884;17.436;2023-09-07T07:01:16;9.00;;;3.70;;
77591;SDS011;66891;46.884;17.436;2023-09-07T07:03:46;9.23;;;3.25;;
77591;SDS011;66891;46.884;17.436;2023-09-07T07:06:14;10.10;;;3.78;;
77591;SDS011;66891;46.884;17.436;2023-09-07T07:08:42;10.00;;;3.67;;
77591;SDS011;66891;46.884;17.436;2023-09-07T07:11:09;9.65;;;3.45;;
77591;SDS011;66891;46.884;17.436;2023-09-07T07:13:36;11.63;;;5.03;;
77591;SDS011;66891;46.884;17.436;2023-09-07T07:16:04;9.90;;;3.60;;
77591;SDS011;66891;46.884;17.436;2023-09-07T07:18:31;8.70;;;3.05;;
77591;SDS011;66891;46.884;17.436;2023-09-07T07:20:59;9.48;;;3.53;;
77591;SDS011;66891;46.884;17.436;2023-09-07T07:23:27;8.65;;;3.25;;
77591;SDS011;66891;46.884;17.436;2023-09-07T07:25:59;9.37;;;3.20;;
77591;SDS011;66891;46.884;17.436;2023-09-07T07:28:26;10.75;;;3.00;;
77591;SDS011;66891;46.884;17.436;2023-09-07T07:30:54;8.98;;;2.97;;
77591;SDS011;66891;46.884;17.436;2023-09-07T07:33:21;8.38;;;2.97;;
77591;SDS011;66891;46.884;17.436;2023-09-07T07:38:44;8.87;;;3.00;;
77591;SDS011;66891;46.884;17.436;2023-09-07T07:41:11;8.82;;;2.53;;
77591;SDS011;66891;46.884;17.436;2023-09-07T07:43:38;11.68;;;3.55;;
77591;SDS011;66891;46.884;17.436;2023-09-07T07:46:07;9.35;;;2.78;;
77591;SDS011;66891;46.884;17.436;2023-09-07T07:48:34;15.90;;;3.28;;
77591;SDS011;66891;46.884;17.436;2023-09-07T07:51:02;17.50;;;3.10;;
77591;SDS011;66891;46.884;17.436;2023-09-07T07:53:29;8.95;;;3.28;;
77591;SDS011;66891;46.884;17.436;2023-09-07T07:55:59;10.68;;;3.10;;
77591;SDS011;66891;46.884;17.436;2023-09-07T07:58:26;12.80;;;3.17;;
77591;SDS011;66891;46.884;17.436;2023-09-07T08:00:53;11.80;;;3.20;;
77591;SDS011;66891;46.884;17.436;2023-09-07T08:03:24;14.37;;;3.40;;
77591;SDS011;66891;46.884;17.436;2023-09-07T08:05:52;8.30;;;2.92;;
77591;SDS011;66891;46.884;17.436;2023-09-07T08:08:19;16.20;;;4.07;;
77591;SDS011;66891;46.884;17.436;2023-09-07T08:10:51;12.95;;;3.50;;
77591;SDS011;66891;46.884;17.436;2023-09-07T08:13:22;11.63;;;3.50;;
77591;SDS011;66891;46.884;17.436;2023-09-07T08:15:52;13.00;;;3.57;;
77591;SDS011;66891;46.884;17.436;2023-09-07T08:18:19;10.93;;;3.10;;
77591;SDS011;66891;46.884;17.436;2023-09-07T08:20:46;7.40;;;2.70;;
77591;SDS011;66891;46.884;17.436;2023-09-07T08:23:13;9.77;;;3.22;;
77591;SDS011;66891;46.884;17.436;2023-09-07T08:25:40;9.05;;;3.10;;
77591;SDS011;66891;46.884;17.436;2023-09-07T08:28:11;10.53;;;2.70;;
77591;SDS011;66891;46.884;17.436;2023-09-07T08:30:40;11.20;;;2.83;;
77591;SDS011;66891;46.884;17.436;2023-09-07T08:33:07;11.43;;;3.03;;
77591;SDS011;66891;46.884;17.436;2023-09-07T08:35:35;9.20;;;2.95;;
77591;SDS011;66891;46.884;17.436;2023-09-07T08:38:04;11.43;;;2.75;;
77591;SDS011;66891;46.884;17.436;2023-09-07T08:40:35;10.67;;;2.73;;
77591;SDS011;66891;46.884;17.436;2023-09-07T08:43:03;9.77;;;3.08;;
77591;SDS011;66891;46.884;17.436;2023-09-07T08:45:31;14.80;;;3.40;;
77591;SDS011;66891;46.884;17.436;2023-09-07T08:48:06;7.65;;;2.80;;
77591;SDS011;66891;46.884;17.436;2023-09-07T08:50:34;8.63;;;3.08;;
77591;SDS011;66891;46.884;17.436;2023-09-07T08:53:05;11.83;;;3.40;;
77591;SDS011;66891;46.884;17.436;2023-09-07T08:55:31;12.30;;;3.38;;
77591;SDS011;66891;46.884;17.436;2023-09-07T08:57:59;20.63;;;3.63;;
77591;SDS011;66891;46.884;17.436;2023-09-07T09:00:26;13.93;;;3.20;;
77591;SDS011;66891;46.884;17.436;2023-09-07T09:03:02;8.85;;;3.22;;
77591;SDS011;66891;46.884;17.436;2023-09-07T09:05:32;18.03;;;3.73;;
77591;SDS011;66891;46.884;17.436;2023-09-07T09:08:00;8.05;;;2.30;;
77591;SDS011;66891;46.884;17.436;2023-09-07T09:10:27;12.82;;;3.13;;
77591;SDS011;66891;46.884;17.436;2023-09-07T09:12:54;18.85;;;3.78;;
77591;SDS011;66891;46.884;17.436;2023-09-07T09:15:22;23.50;;;3.60;;
77591;SDS011;66891;46.884;17.436;2023-09-07T09:17:52;11.97;;;3.50;;
77591;SDS011;66891;46.884;17.436;2023-09-07T09:20:21;14.57;;;3.78;;
77591;SDS011;66891;46.884;17.436;2023-09-07T09:22:54;9.70;;;3.08;;
77591;SDS011;66891;46.884;17.436;2023-09-07T09:25:21;16.67;;;3.55;;
77591;SDS011;66891;46.884;17.436;2023-09-07T09:27:48;9.07;;;3.38;;
77591;SDS011;66891;46.884;17.436;2023-09-07T09:30:15;9.33;;;2.97;;
77591;SDS011;66891;46.884;17.436;2023-09-07T09:32:43;10.07;;;3.25;;
77591;SDS011;66891;46.884;17.436;2023-09-07T09:35:11;8.82;;;3.20;;
77591;SDS011;66891;46.884;17.436;2023-09-07T09:37:45;16.15;;;3.70;;
77591;SDS011;66891;46.884;17.436;2023-09-07T09:40:17;10.40;;;2.72;;
77591;SDS011;66891;46.884;17.436;2023-09-07T09:42:44;15.17;;;3.30;;
77591;SDS011;66891;46.884;17.436;2023-09-07T09:45:12;13.40;;;3.72;;
77591;SDS011;66891;46.884;17.436;2023-09-07T09:47:41;7.93;;;3.10;;
77591;SDS011;66891;46.884;17.436;2023-09-07T09:50:11;25.67;;;4.15;;
77591;SDS011;66891;46.884;17.436;2023-09-07T09:52:38;7.88;;;3.10;;
77591;SDS011;66891;46.884;17.436;2023-09-07T09:55:06;9.60;;;2.87;;
77591;SDS011;66891;46.884;17.436;2023-09-07T09:57:36;20.85;;;3.70;;
77591;SDS011;66891;46.884;17.436;2023-09-07T10:00:04;14.45;;;3.33;;
77591;SDS011;66891;46.884;17.436;2023-09-07T10:03:01;12.27;;;3.47;;
77591;SDS011;66891;46.884;17.436;2023-09-07T10:05:31;14.15;;;3.50;;
77591;SDS011;66891;46.884;17.436;2023-09-07T10:08:04;8.40;;;2.67;;
77591;SDS011;66891;46.884;17.436;2023-09-07T10:10:33;10.80;;;3.28;;
77591;SDS011;66891;46.884;17.436;2023-09-07T10:13:09;14.05;;;4.05;;
77591;SDS011;66891;46.884;17.436;2023-09-07T10:15:43;15.05;;;2.88;;
77591;SDS011;66891;46.884;17.436;2023-09-07T10:18:11;17.63;;;2.95;;
77591;SDS011;66891;46.884;17.436;2023-09-07T10:20:49;7.80;;;2.80;;
77591;SDS011;66891;46.884;17.436;2023-09-07T10:23:16;11.25;;;5.57;;
77591;SDS011;66891;46.884;17.436;2023-09-07T10:25:47;11.85;;;3.90;;
77591;SDS011;66891;46.884;17.436;2023-09-07T10:28:20;7.65;;;2.70;;
77591;SDS011;66891;46.884;17.436;2023-09-07T10:34:35;10.53;;;2.63;;
77591;SDS011;66891;46.884;17.436;2023-09-07T10:37:04;11.02;;;3.92;;
77591;SDS011;66891;46.884;17.436;2023-09-07T10:39:31;9.77;;;2.80;;
77591;SDS011;66891;46.884;17.436;2023-09-07T10:41:59;9.43;;;2.72;;
77591;SDS011;66891;46.884;17.436;2023-09-07T10:44:28;9.07;;;3.38;;
77591;SDS011;66891;46.884;17.436;2023-09-07T10:46:56;15.23;;;3.80;;
77591;SDS011;66891;46.884;17.436;2023-09-07T10:49:23;19.27;;;4.43;;
77591;SDS011;66891;46.884;17.436;2023-09-07T10:51:50;10.63;;;3.47;;
77591;SDS011;66891;46.884;17.436;2023-09-07T10:54:18;9.80;;;3.60;;
77591;SDS011;66891;46.884;17.436;2023-09-07T10:56:46;9.10;;;3.60;;
77591;SDS011;66891;46.884;17.436;2023-09-07T10:59:14;7.53;;;3.27;;
77591;SDS011;66891;46.884;17.436;2023-09-07T11:01:43;22.23;;;5.18;;
77591;SDS011;66891;46.884;17.436;2023-09-07T11:04:10;20.15;;;4.90;;
77591;SDS011;66891;46.884;17.436;2023-09-07T11:06:39;8.77;;;3.40;;
77591;SDS011;66891;46.884;17.436;2023-09-07T11:09:08;10.98;;;3.72;;
77591;SDS011;66891;46.884;17.436;2023-09-07T11:11:37;14.00;;;3.37;;
77591;SDS011;66891;46.884;17.436;2023-09-07T11:14:05;9.02;;;3.30;;
77591;SDS011;66891;46.884;17.436;2023-09-07T11:16:32;11.63;;;3.67;;
77591;SDS011;66891;46.884;17.436;2023-09-07T11:19:03;20.38;;;4.00;;
77591;SDS011;66891;46.884;17.436;2023-09-07T11:21:31;14.73;;;3.47;;
77591;SDS011;66891;46.884;17.436;2023-09-07T11:24:01;11.40;;;3.13;;
77591;SDS011;66891;46.884;17.436;2023-09-07T11:26:42;27.17;;;4.20;;
77591;SDS011;66891;46.884;17.436;2023-09-07T11:29:09;19.65;;;3.78;;
77591;SDS011;66891;46.884;17.436;2023-09-07T11:31:39;24.55;;;4.63;;
77591;SDS011;66891;46.884;17.436;2023-09-07T11:34:09;23.45;;;4.72;;
77591;SDS011;66891;46.884;17.436;2023-09-07T11:36:38;23.23;;;4.97;;
77591;SDS011;66891;46.884;17.436;2023-09-07T11:39:05;10.40;;;3.28;;
77591;SDS011;66891;46.884;17.436;2023-09-07T11:41:42;18.75;;;4.13;;
77591;SDS011;66891;46.884;17.436;2023-09-07T11:44:09;11.80;;;4.03;;
77591;SDS011;66891;46.884;17.436;2023-09-07T11:46:37;20.95;;;4.68;;
77591;SDS011;66891;46.884;17.436;2023-09-07T11:49:04;19.33;;;3.80;;
77591;SDS011;66891;46.884;17.436;2023-09-07T11:51:33;18.98;;;4.20;;
77591;SDS011;66891;46.884;17.436;2023-09-07T11:54:01;26.70;;;4.68;;
77591;SDS011;66891;46.884;17.436;2023-09-07T11:56:31;11.90;;;3.88;;
77591;SDS011;66891;46.884;17.436;2023-09-07T11:59:01;24.15;;;4.53;;
77591;SDS011;66891;46.884;17.436;2023-09-07T12:01:28;24.83;;;4.63;;
77591;SDS011;66891;46.884;17.436;2023-09-07T12:03:56;15.77;;;4.32;;
77591;SDS011;66891;46.884;17.436;2023-09-07T12:06:23;15.45;;;4.38;;
77591;SDS011;66891;46.884;17.436;2023-09-07T12:09:01;10.02;;;3.60;;
77591;SDS011;66891;46.884;17.436;2023-09-07T12:11:29;20.50;;;5.13;;
77591;SDS011;66891;46.884;17.436;2023-09-07T12:13:59;13.83;;;3.43;;
77591;SDS011;66891;46.884;17.436;2023-09-07T12:16:27;14.73;;;4.13;;
77591;SDS011;66891;46.884;17.436;2023-09-07T12:18:54;7.70;;;4.15;;
77591;SDS011;66891;46.884;17.436;2023-09-07T12:21:22;13.60;;;4.30;;
77591;SDS011;66891;46.884;17.436;2023-09-07T12:23:49;9.63;;;3.63;;
77591;SDS011;66891;46.884;17.436;2023-09-07T12:26:18;12.17;;;4.40;;
77591;SDS011;66891;46.884;17.436;2023-09-07T12:28:47;7.30;;;3.70;;
77591;SDS011;66891;46.884;17.436;2023-09-07T12:31:15;8.15;;;3.65;;
77591;SDS011;66891;46.884;17.436;2023-09-07T12:33:43;9.57;;;3.83;;
77591;SDS011;66891;46.884;17.436;2023-09-07T12:36:10;9.48;;;3.92;;
77591;SDS011;66891;46.884;17.436;2023-09-07T12:38:38;9.50;;;3.87;;
77591;SDS011;66891;46.884;17.436;2023-09-07T12:41:06;11.10;;;4.20;;
77591;SDS011;66891;46.884;17.436;2023-09-07T12:43:34;9.70;;;3.90;;
77591;SDS011;66891;46.884;17.436;2023-09-07T12:46:01;7.82;;;4.40;;
77591;SDS011;66891;46.884;17.436;2023-09-07T12:48:29;10.75;;;3.85;;
77591;SDS011;66891;46.884;17.436;2023-09-07T12:50:56;10.77;;;4.50;;
77591;SDS011;66891;46.884;17.436;2023-09-07T12:53:23;10.80;;;3.92;;
77591;SDS011;66891;46.884;17.436;2023-09-07T12:55:52;10.27;;;3.40;;
77591;SDS011;66891;46.884;17.436;2023-09-07T12:58:19;10.73;;;3.13;;
77591;SDS011;66891;46.884;17.436;2023-09-07T13:00:48;9.15;;;3.40;;
77591;SDS011;66891;46.884;17.436;2023-09-07T13:03:18;7.87;;;2.67;;
77591;SDS011;66891;46.884;17.436;2023-09-07T13:05:48;10.45;;;3.65;;
77591;SDS011;66891;46.884;17.436;2023-09-07T13:08:18;9.77;;;3.13;;
77591;SDS011;66891;46.884;17.436;2023-09-07T13:10:46;9.23;;;3.08;;
77591;SDS011;66891;46.884;17.436;2023-09-07T13:13:13;9.88;;;2.95;;
77591;SDS011;66891;46.884;17.436;2023-09-07T13:15:41;9.30;;;3.13;;
77591;SDS011;66891;46.884;17.436;2023-09-07T13:18:09;8.80;;;3.30;;
77591;SDS011;66891;46.884;17.436;2023-09-07T13:20:36;12.07;;;3.13;;
77591;SDS011;66891;46.884;17.436;2023-09-07T13:23:04;12.55;;;3.15;;
77591;SDS011;66891;46.884;17.436;2023-09-07T13:25:32;18.10;;;4.30;;
77591;SDS011;66891;46.884;17.436;2023-09-07T13:27:59;11.87;;;3.07;;
77591;SDS011;66891;46.884;17.436;2023-09-07T13:30:27;14.15;;;3.42;;
77591;SDS011;66891;46.884;17.436;2023-09-07T13:32:54;12.45;;;3.97;;
77591;SDS011;66891;46.884;17.436;2023-09-07T13:35:23;11.23;;;3.15;;
77591;SDS011;66891;46.884;17.436;2023-09-07T13:37:50;17.92;;;4.25;;
77591;SDS011;66891;46.884;17.436;2023-09-07T13:40:17;8.60;;;2.50;;
77591;SDS011;66891;46.884;17.436;2023-09-07T13:42:47;8.70;;;3.20;;
77591;SDS011;66891;46.884;17.436;2023-09-07T13:45:15;13.15;;;3.78;;
77591;SDS011;66891;46.884;17.436;2023-09-07T13:47:42;18.88;;;3.95;;
77591;SDS011;66891;46.884;17.436;2023-09-07T13:50:09;21.73;;;3.95;;
77591;SDS011;66891;46.884;17.436;2023-09-07T13:52:37;9.30;;;3.00;;
77591;SDS011;66891;46.884;17.436;2023-09-07T13:55:06;8.52;;;2.80;;
77591;SDS011;66891;46.884;17.436;2023-09-07T13:57:33;8.88;;;3.28;;
77591;SDS011;66891;46.884;17.436;2023-09-07T14:00:01;7.57;;;2.88;;
77591;SDS011;66891;46.884;17.436;2023-09-07T14:02:28;7.82;;;3.30;;
77591;SDS011;66891;46.884;17.436;2023-09-07T14:04:56;8.30;;;3.00;;
77591;SDS011;66891;46.884;17.436;2023-09-07T14:07:23;8.93;;;3.08;;
77591;SDS011;66891;46.884;17.436;2023-09-07T14:09:53;9.57;;;3.28;;
77591;SDS011;66891;46.884;17.436;2023-09-07T14:12:21;8.57;;;2.90;;
77591;SDS011;66891;46.884;17.436;2023-09-07T14:14:48;7.07;;;2.92;;
77591;SDS011;66891;46.884;17.436;2023-09-07T14:17:16;6.90;;;2.50;;
77591;SDS011;66891;46.884;17.436;2023-09-07T14:19:43;7.78;;;3.03;;
77591;SDS011;66891;46.884;17.436;2023-09-07T14:22:12;15.88;;;3.60;;
77591;SDS011;66891;46.884;17.436;2023-09-07T14:24:39;8.27;;;3.47;;
77591;SDS011;66891;46.884;17.436;2023-09-07T14:27:08;7.90;;;3.00;;
77591;SDS011;66891;46.884;17.436;2023-09-07T14:29:35;7.07;;;2.73;;
77591;SDS011;66891;46.884;17.436;2023-09-07T14:32:05;8.55;;;2.88;;
77591;SDS011;66891;46.884;17.436;2023-09-07T14:34:32;10.23;;;3.05;;
77591;SDS011;66891;46.884;17.436;2023-09-07T14:36:59;8.63;;;2.60;;
77591;SDS011;66891;46.884;17.436;2023-09-07T14:39:27;8.57;;;3.28;;
77591;SDS011;66891;46.884;17.436;2023-09-07T14:41:54;9.13;;;2.80;;